createdAt,value
2022-12-22T00:01:38.094Z,2.74
2022-12-22T00:04:27.707Z,2.74
2022-12-22T00:07:13.796Z,2.76
2022-12-22T00:09:59.829Z,2.79
2022-12-22T00:12:47.929Z,2.82
2022-12-22T00:15:35.681Z,2.81
2022-12-22T00:18:22.395Z,2.82
2022-12-22T00:21:08.591Z,2.81
2022-12-22T00:23:54.439Z,2.85
2022-12-22T00:26:40.611Z,2.85
2022-12-22T00:29:33.512Z,2.84
2022-12-22T00:32:20.044Z,2.86
2022-12-22T00:35:06.687Z,2.86
2022-12-22T00:37:53.843Z,2.88
2022-12-22T00:40:47.232Z,2.93
2022-12-22T00:43:33.866Z,2.96
2022-12-22T00:46:23.013Z,2.95
2022-12-22T00:49:09.831Z,2.92
2022-12-22T00:51:55.526Z,2.89
2022-12-22T00:54:42.141Z,2.87
2022-12-22T00:57:34.982Z,2.84
2022-12-22T01:00:21.245Z,2.89
2022-12-22T01:03:09.123Z,2.93
2022-12-22T01:05:55.057Z,2.95
2022-12-22T01:08:40.712Z,3.00
2022-12-22T01:11:26.818Z,3.00
2022-12-22T01:14:12.890Z,3.00
2022-12-22T01:16:58.880Z,2.99
2022-12-22T01:19:46.341Z,2.97
2022-12-22T01:22:36.362Z,2.95
2022-12-22T01:25:30.561Z,2.91
2022-12-22T01:28:16.531Z,2.89
2022-12-22T01:31:04.437Z,2.87
2022-12-22T01:33:55.096Z,2.87
2022-12-22T01:36:43.091Z,2.89
2022-12-22T01:39:32.697Z,2.87
2022-12-22T01:42:24.211Z,2.81
2022-12-22T01:45:10.013Z,2.87
2022-12-22T01:47:56.567Z,2.89
2022-12-22T01:50:47.909Z,2.93
2022-12-22T01:53:38.934Z,2.93
2022-12-22T01:56:26.515Z,2.92
2022-12-22T01:59:18.951Z,2.98
2022-12-22T02:02:05.312Z,3.06
2022-12-22T02:04:56.439Z,3.09
2022-12-22T02:07:57.164Z,3.06
2022-12-22T02:11:07.639Z,3.05
2022-12-22T02:14:29.696Z,3.02
2022-12-22T02:17:26.041Z,2.99
2022-12-22T02:20:34.917Z,2.95
2022-12-22T02:23:33.631Z,2.95
2022-12-22T02:26:38.912Z,2.97
2022-12-22T02:29:26.453Z,2.99
2022-12-22T02:32:18.267Z,2.96
2022-12-22T02:35:05.558Z,2.94
2022-12-22T02:38:01.325Z,2.94
2022-12-22T02:40:54.273Z,2.94
2022-12-22T02:44:01.498Z,2.88
2022-12-22T02:46:53.818Z,2.90
2022-12-22T02:49:46.650Z,2.88
2022-12-22T02:52:36.729Z,2.84
2022-12-22T02:55:24.413Z,2.83
2022-12-22T02:58:10.744Z,2.83
2022-12-22T03:00:58.901Z,2.90
2022-12-22T03:03:45.060Z,2.92
2022-12-22T03:06:30.632Z,2.89
2022-12-22T03:09:16.160Z,2.88
2022-12-22T03:12:01.685Z,2.85
2022-12-22T03:14:47.474Z,2.85
2022-12-22T03:17:34.727Z,2.85
2022-12-22T03:20:20.881Z,2.87
2022-12-22T03:23:06.469Z,2.91
2022-12-22T03:25:54.245Z,2.90
2022-12-22T03:28:24.339Z,2.90
2022-12-22T03:30:57.730Z,2.91
2022-12-22T03:33:29.599Z,2.90
2022-12-22T03:35:58.756Z,2.90
2022-12-22T03:38:27.602Z,2.89
2022-12-22T03:40:56.130Z,2.92
2022-12-22T03:43:42.860Z,2.93
2022-12-22T03:46:30.589Z,2.93
2022-12-22T03:49:13.145Z,2.92
2022-12-22T03:51:45.092Z,2.92
2022-12-22T03:54:15.289Z,2.91
2022-12-22T03:56:44.461Z,2.91
2022-12-22T03:59:13.563Z,2.91
2022-12-22T04:01:43.551Z,2.94
2022-12-22T04:04:15.185Z,2.95
2022-12-22T04:06:44.082Z,2.97
2022-12-22T04:09:12.719Z,2.99
2022-12-22T04:11:59.621Z,3.04
2022-12-22T04:14:33.994Z,3.05
2022-12-22T04:17:03.499Z,3.05
2022-12-22T04:19:33.810Z,3.02
2022-12-22T04:22:02.851Z,3.01
2022-12-22T04:24:31.311Z,3.03
2022-12-22T04:26:59.608Z,3.02
2022-12-22T04:29:27.940Z,3.01
2022-12-22T04:31:56.577Z,2.98
2022-12-22T04:34:24.902Z,2.95
2022-12-22T04:36:54.889Z,2.91
2022-12-22T04:39:23.334Z,2.86
2022-12-22T04:41:52.168Z,2.87
2022-12-22T04:44:20.452Z,2.90
2022-12-22T04:46:48.809Z,2.95
2022-12-22T04:49:17.414Z,2.96
2022-12-22T04:51:45.709Z,2.98
2022-12-22T04:54:16.730Z,3.02
2022-12-22T04:56:45.548Z,3.05
2022-12-22T04:59:14.033Z,3.09
2022-12-22T05:01:42.645Z,3.10
2022-12-22T05:04:11.281Z,3.08
2022-12-22T05:06:40.521Z,3.08
2022-12-22T05:09:08.844Z,3.11
2022-12-22T05:11:39.094Z,3.06
2022-12-22T05:14:07.682Z,3.05
2022-12-22T05:16:36.366Z,3.06
2022-12-22T05:19:05.107Z,3.06
2022-12-22T05:21:33.561Z,3.07
2022-12-22T05:24:02.056Z,3.06
2022-12-22T05:26:30.455Z,3.01
2022-12-22T05:29:00.103Z,2.99
2022-12-22T05:31:29.368Z,2.90
2022-12-22T05:33:58.106Z,2.91
2022-12-22T05:36:26.416Z,2.97
2022-12-22T05:38:54.932Z,3.02
2022-12-22T05:41:24.113Z,3.05
2022-12-22T05:43:52.950Z,3.11
2022-12-22T05:46:23.783Z,3.08
2022-12-22T05:48:52.159Z,3.10
2022-12-22T05:51:20.490Z,3.10
2022-12-22T05:53:48.921Z,3.06
2022-12-22T05:56:17.249Z,3.07
2022-12-22T05:58:45.877Z,3.07
2022-12-22T06:01:14.208Z,3.05
2022-12-22T06:03:44.545Z,3.05
2022-12-22T06:06:12.990Z,3.04
2022-12-22T06:08:41.317Z,3.03
2022-12-22T06:11:09.853Z,3.02
2022-12-22T06:13:38.366Z,2.98
2022-12-22T06:16:07.041Z,2.96
2022-12-22T06:18:35.553Z,2.91
2022-12-22T06:21:05.696Z,2.90
2022-12-22T06:23:34.419Z,2.90
2022-12-22T06:26:03.683Z,2.92
2022-12-22T06:28:32.750Z,2.88
2022-12-22T06:31:01.352Z,2.89
2022-12-22T06:33:29.799Z,2.88
2022-12-22T06:35:59.495Z,2.88
2022-12-22T06:38:30.010Z,2.88
2022-12-22T06:40:58.519Z,2.87
2022-12-22T06:43:26.349Z,2.89
2022-12-22T06:45:55.057Z,2.91
2022-12-22T06:48:24.241Z,2.93
2022-12-22T06:50:53.194Z,2.95
2022-12-22T06:53:21.658Z,2.97
2022-12-22T06:55:51.416Z,2.96
2022-12-22T06:58:19.782Z,2.95
2022-12-22T07:00:49.953Z,2.95
2022-12-22T07:03:18.470Z,2.94
2022-12-22T07:05:47.030Z,2.88
2022-12-22T07:08:15.411Z,2.87
2022-12-22T07:11:01.660Z,2.85
2022-12-22T07:13:37.739Z,2.88
2022-12-22T07:16:08.416Z,2.95
2022-12-22T07:18:38.630Z,3.00
2022-12-22T07:21:08.811Z,3.04
2022-12-22T07:23:37.642Z,3.01
2022-12-22T07:26:06.778Z,3.00
2022-12-22T07:28:39.057Z,3.01
2022-12-22T07:31:07.225Z,3.01
2022-12-22T07:33:36.031Z,3.01
2022-12-22T07:36:07.149Z,3.03
2022-12-22T07:38:37.902Z,3.04
2022-12-22T07:41:28.179Z,3.03
2022-12-22T07:43:58.431Z,2.97
2022-12-22T07:46:28.916Z,2.98
2022-12-22T07:49:15.076Z,2.99
2022-12-22T07:51:44.438Z,3.02
2022-12-22T07:54:15.363Z,3.04
2022-12-22T07:56:45.646Z,3.07
2022-12-22T07:59:16.103Z,3.12
2022-12-22T08:01:45.777Z,3.15
2022-12-22T08:04:15.688Z,3.13
2022-12-22T08:06:44.269Z,3.17
2022-12-22T08:09:16.283Z,3.19
2022-12-22T08:11:44.895Z,3.22
2022-12-22T08:14:13.496Z,3.29
2022-12-22T08:16:43.669Z,3.39
2022-12-22T08:19:12.547Z,3.45
2022-12-22T08:21:44.223Z,3.57
2022-12-22T08:24:18.711Z,3.67
2022-12-22T08:26:50.857Z,3.69
2022-12-22T08:29:23.099Z,3.77
2022-12-22T08:32:13.548Z,3.85
2022-12-22T08:34:45.374Z,3.90
2022-12-22T08:37:18.135Z,3.90
2022-12-22T08:39:49.870Z,3.91
2022-12-22T08:42:20.106Z,3.92
2022-12-22T08:44:53.394Z,3.93
2022-12-22T08:47:25.009Z,3.99
2022-12-22T08:49:53.444Z,4.08
2022-12-22T08:52:21.920Z,4.18
2022-12-22T08:54:50.515Z,4.24
2022-12-22T08:57:19.062Z,4.19
2022-12-22T08:59:48.308Z,4.21
2022-12-22T09:02:16.926Z,4.17
2022-12-22T09:04:47.210Z,4.13
2022-12-22T09:07:16.214Z,4.11
2022-12-22T09:09:44.914Z,4.10
2022-12-22T09:12:13.319Z,4.11
2022-12-22T09:14:41.893Z,4.26
2022-12-22T09:17:10.344Z,4.35
2022-12-22T09:19:38.842Z,4.47
2022-12-22T09:22:09.546Z,4.61
2022-12-22T09:24:38.032Z,4.72
2022-12-22T09:27:06.786Z,4.71
2022-12-22T09:29:35.300Z,4.64
2022-12-22T09:32:04.167Z,4.58
2022-12-22T09:34:32.976Z,4.60
2022-12-22T09:37:01.619Z,4.68
2022-12-22T09:39:32.174Z,4.76
2022-12-22T09:42:02.159Z,4.82
2022-12-22T09:44:34.756Z,4.88
2022-12-22T09:47:05.934Z,4.94
2022-12-22T09:49:34.730Z,5.02
2022-12-22T09:52:05.753Z,5.10
2022-12-22T09:54:35.785Z,5.18
2022-12-22T09:57:07.989Z,5.26
2022-12-22T09:59:37.149Z,5.30
2022-12-22T10:02:18.638Z,5.38
2022-12-22T10:05:18.941Z,5.46
2022-12-22T10:07:47.763Z,5.60
2022-12-22T10:10:25.494Z,5.80
2022-12-22T10:12:56.530Z,5.90
2022-12-22T10:15:26.028Z,6.00
2022-12-22T10:18:09.205Z,5.94
2022-12-22T10:20:40.019Z,5.85
2022-12-22T10:23:18.620Z,5.76
2022-12-22T10:28:59.836Z,5.57
2022-12-22T10:31:29.843Z,5.55
2022-12-22T10:34:11.961Z,5.49
2022-12-22T10:36:42.429Z,5.43
2022-12-22T10:39:13.254Z,5.40
2022-12-22T10:41:46.066Z,5.47
2022-12-22T10:44:24.327Z,5.50
2022-12-22T10:46:54.526Z,5.54
2022-12-22T10:49:25.955Z,5.56
2022-12-22T10:51:57.190Z,5.56
2022-12-22T10:54:34.268Z,5.51
2022-12-22T10:57:08.074Z,5.49
2022-12-22T10:59:49.352Z,5.49
2022-12-22T11:02:38.237Z,5.51
2022-12-22T11:05:09.993Z,5.54
2022-12-22T11:07:40.975Z,5.57
2022-12-22T11:10:18.685Z,5.61
2022-12-22T11:13:12.041Z,5.59
2022-12-22T11:15:46.750Z,5.56
2022-12-22T11:18:28.046Z,5.54
2022-12-22T11:21:02.637Z,5.46
2022-12-22T11:23:38.205Z,5.42
2022-12-22T11:26:15.215Z,5.45
2022-12-22T11:29:15.443Z,5.50
2022-12-22T11:31:58.875Z,5.54
2022-12-22T11:34:43.778Z,5.50
2022-12-22T11:37:27.663Z,5.52
2022-12-22T11:40:05.164Z,5.54
2022-12-22T11:42:48.831Z,5.56
2022-12-22T11:45:41.033Z,5.55
2022-12-22T11:48:36.407Z,5.50
2022-12-22T11:51:11.713Z,5.38
2022-12-22T11:54:14.248Z,5.27
2022-12-22T11:56:46.361Z,5.15
2022-12-22T11:59:31.385Z,5.11
2022-12-22T12:02:21.107Z,5.10
2022-12-22T12:05:12.719Z,5.10
2022-12-22T12:07:44.616Z,5.08
2022-12-22T12:10:16.410Z,5.03
2022-12-22T12:12:54.186Z,4.97
2022-12-22T12:15:29.301Z,4.92
2022-12-22T12:18:32.344Z,4.95
2022-12-22T12:21:18.318Z,4.99
2022-12-22T12:24:03.199Z,5.07
2022-12-22T12:26:34.437Z,5.20
2022-12-22T12:29:12.763Z,5.33
2022-12-22T12:31:45.331Z,5.41
2022-12-22T12:34:18.493Z,5.38
2022-12-22T12:36:52.830Z,5.27
2022-12-22T12:39:30.694Z,5.13
2022-12-22T12:42:10.184Z,4.99
2022-12-22T12:44:39.797Z,4.93
2022-12-22T12:47:26.639Z,4.89
2022-12-22T12:50:01.071Z,4.84
2022-12-22T12:53:14.256Z,4.77
2022-12-22T12:56:10.601Z,4.66
2022-12-22T12:58:53.695Z,4.59
2022-12-22T13:01:57.247Z,4.53
2022-12-22T13:05:14.633Z,4.50
2022-12-22T13:08:14.647Z,4.45
2022-12-22T13:10:46.505Z,4.40
2022-12-22T13:13:53.671Z,4.38
2022-12-22T13:16:27.385Z,4.37
2022-12-22T13:19:00.151Z,4.36
2022-12-22T13:21:52.820Z,4.34
2022-12-22T13:24:31.056Z,4.28
2022-12-22T13:27:07.843Z,4.23
2022-12-22T13:29:45.416Z,4.21
2022-12-22T13:32:27.123Z,4.17
2022-12-22T13:35:30.489Z,4.17
2022-12-22T13:37:54.881Z,4.18
2022-12-22T13:40:26.185Z,4.17
2022-12-22T13:42:58.772Z,4.11
2022-12-22T13:45:37.783Z,4.06
2022-12-22T13:48:14.636Z,3.98
2022-12-22T13:50:46.763Z,3.92
2022-12-22T13:53:58.128Z,3.87
2022-12-22T13:56:16.253Z,3.84
2022-12-22T13:58:48.053Z,3.85
2022-12-22T14:01:19.564Z,3.84
2022-12-22T14:04:01.737Z,3.85
2022-12-22T14:06:33.150Z,3.83
2022-12-22T14:09:13.302Z,3.84
2022-12-22T14:11:51.021Z,3.82
2022-12-22T14:14:25.111Z,3.80
2022-12-22T14:16:56.693Z,3.72
2022-12-22T14:19:26.741Z,3.67
2022-12-22T14:22:05.070Z,3.67
2022-12-22T14:24:42.040Z,3.65
2022-12-22T14:27:20.557Z,3.63
2022-12-22T14:29:49.138Z,3.60
2022-12-22T14:32:34.793Z,3.60
2022-12-22T14:35:03.874Z,3.61
2022-12-22T14:37:33.308Z,3.62
2022-12-22T14:40:01.955Z,3.62
2022-12-22T14:42:33.669Z,3.56
2022-12-22T14:45:03.366Z,3.50
2022-12-22T14:47:31.775Z,3.45
2022-12-22T14:50:15.201Z,3.39
2022-12-22T14:52:46.849Z,3.32
2022-12-22T14:55:26.729Z,3.26
2022-12-22T14:57:59.787Z,3.20
2022-12-22T15:00:33.633Z,3.15
2022-12-22T15:03:04.515Z,3.11
2022-12-22T15:05:36.351Z,3.07
2022-12-22T15:08:07.952Z,3.03
2022-12-22T15:10:39.199Z,3.02
2022-12-22T15:13:20.143Z,3.01
2022-12-22T15:15:48.684Z,3.02
2022-12-22T15:18:17.390Z,3.04
2022-12-22T15:20:45.884Z,3.04
2022-12-22T15:23:17.163Z,3.07
2022-12-22T15:25:46.270Z,3.08
2022-12-22T15:28:16.074Z,3.06
2022-12-22T15:30:44.641Z,3.06
2022-12-22T15:33:15.427Z,3.06
2022-12-22T15:35:45.150Z,3.05
2022-12-22T15:38:15.866Z,3.03
2022-12-22T15:40:45.095Z,3.02
2022-12-22T15:43:55.647Z,3.00
2022-12-22T15:46:06.719Z,3.01
2022-12-22T15:48:37.581Z,2.98
2022-12-22T15:51:08.945Z,2.97
2022-12-22T15:53:38.564Z,2.94
2022-12-22T15:56:17.429Z,2.88
2022-12-22T15:58:48.337Z,2.84
2022-12-22T16:01:17.005Z,2.79
2022-12-22T16:03:45.662Z,2.76
2022-12-22T16:06:16.575Z,2.70
2022-12-22T16:08:49.778Z,2.66
2022-12-22T16:11:19.491Z,2.57
2022-12-22T16:13:50.658Z,2.52
2022-12-22T16:16:19.637Z,2.51
2022-12-22T16:18:48.225Z,2.46
2022-12-22T16:21:20.029Z,2.42
2022-12-22T16:23:49.321Z,2.38
2022-12-22T16:26:20.566Z,2.35
2022-12-22T16:28:51.450Z,2.31
2022-12-22T16:31:22.825Z,2.30
2022-12-22T16:33:52.376Z,2.27
2022-12-22T16:36:21.180Z,2.24
2022-12-22T16:38:50.121Z,2.20
2022-12-22T16:41:24.521Z,2.20
2022-12-22T16:44:03.807Z,2.22
2022-12-22T16:46:38.055Z,2.22
2022-12-22T16:49:09.937Z,2.20
2022-12-22T16:51:48.490Z,2.20
2022-12-22T16:54:17.354Z,2.24
2022-12-22T16:56:47.270Z,2.36
2022-12-22T16:59:17.761Z,2.37
2022-12-22T17:01:51.751Z,2.36
2022-12-22T17:04:24.536Z,2.37
2022-12-22T17:06:55.346Z,2.43
2022-12-22T17:09:27.411Z,2.47
2022-12-22T17:11:56.649Z,2.49
2022-12-22T17:14:32.736Z,2.47
2022-12-22T17:17:01.616Z,2.50
2022-12-22T17:19:30.270Z,2.55
2022-12-22T17:22:00.230Z,2.55
2022-12-22T17:24:29.538Z,2.58
2022-12-22T17:27:02.157Z,2.62
2022-12-22T17:29:32.463Z,2.68
2022-12-22T17:32:00.836Z,2.69
2022-12-22T17:34:29.508Z,2.68
2022-12-22T17:36:59.490Z,2.71
2022-12-22T17:39:28.502Z,2.73
2022-12-22T17:41:57.648Z,2.78
2022-12-22T17:44:28.253Z,2.82
2022-12-22T17:46:58.791Z,2.86
2022-12-22T17:49:27.506Z,2.91
2022-12-22T17:51:56.651Z,2.94
2022-12-22T17:54:27.520Z,2.95
2022-12-22T17:57:01.357Z,2.92
2022-12-22T17:59:30.240Z,2.88
2022-12-22T18:02:00.748Z,2.88
2022-12-22T18:04:29.530Z,2.88
2022-12-22T18:06:58.161Z,2.89
2022-12-22T18:09:27.971Z,2.91
2022-12-22T18:11:56.649Z,2.91
2022-12-22T18:14:25.186Z,2.93
2022-12-22T18:16:53.848Z,2.96
2022-12-22T18:19:23.701Z,2.98
2022-12-22T18:21:53.114Z,2.97
2022-12-22T18:24:21.553Z,2.95
2022-12-22T18:26:50.050Z,2.93
2022-12-22T18:29:19.245Z,2.91
2022-12-22T18:31:47.714Z,2.90
2022-12-22T18:34:16.251Z,2.89
2022-12-22T18:36:48.018Z,2.89
2022-12-22T18:39:19.213Z,2.92
2022-12-22T18:41:48.307Z,2.95
2022-12-22T18:44:17.450Z,2.97
2022-12-22T18:46:47.231Z,2.99
2022-12-22T18:49:16.123Z,3.00
2022-12-22T18:51:47.007Z,2.97
2022-12-22T18:54:24.169Z,2.95
2022-12-22T18:56:52.964Z,2.93
2022-12-22T18:59:26.272Z,2.95
2022-12-22T19:02:03.617Z,2.97
2022-12-22T19:04:32.466Z,3.03
2022-12-22T19:07:02.447Z,3.06
2022-12-22T19:09:31.186Z,3.09
2022-12-22T19:11:59.580Z,3.09
2022-12-22T19:14:28.208Z,3.10
2022-12-22T19:16:56.711Z,3.13
2022-12-22T19:19:25.104Z,3.16
2022-12-22T19:21:54.358Z,3.18
2022-12-22T19:24:24.095Z,3.21
2022-12-22T19:26:53.483Z,3.24
2022-12-22T19:29:22.281Z,3.26
2022-12-22T19:31:50.694Z,3.29
2022-12-22T19:34:21.693Z,3.34
2022-12-22T19:36:50.933Z,3.41
2022-12-22T19:39:19.448Z,3.45
2022-12-22T19:41:52.134Z,3.48
2022-12-22T19:44:23.570Z,3.49
2022-12-22T19:46:53.588Z,3.49
2022-12-22T19:49:24.389Z,3.51
2022-12-22T19:51:52.925Z,3.54
2022-12-22T19:54:21.376Z,3.53
2022-12-22T19:56:54.562Z,3.53
2022-12-22T19:59:35.694Z,3.53
2022-12-22T20:02:26.566Z,3.52
2022-12-22T20:04:56.735Z,3.53
2022-12-22T20:07:28.037Z,3.55
2022-12-22T20:09:56.743Z,3.57
2022-12-22T20:12:30.743Z,3.58
2022-12-22T20:14:59.176Z,3.60
2022-12-22T20:17:28.025Z,3.63
2022-12-22T20:19:56.298Z,3.62
2022-12-22T20:22:25.137Z,3.62
2022-12-22T20:24:55.215Z,3.59
2022-12-22T20:27:30.268Z,3.60
2022-12-22T20:29:58.918Z,3.64
2022-12-22T20:32:28.485Z,3.69
2022-12-22T20:34:57.390Z,3.72
2022-12-22T20:37:26.433Z,3.72
2022-12-22T20:39:54.977Z,3.72
2022-12-22T20:42:25.838Z,3.73
2022-12-22T20:45:03.813Z,3.76
2022-12-22T20:47:34.264Z,3.80
2022-12-22T20:50:02.885Z,3.83
2022-12-22T20:52:31.316Z,3.82
2022-12-22T20:54:59.868Z,3.84
2022-12-22T20:57:29.082Z,3.86
2022-12-22T20:59:58.941Z,3.88
2022-12-22T21:02:29.452Z,3.89
2022-12-22T21:04:58.547Z,3.87
2022-12-22T21:07:27.057Z,3.86
2022-12-22T21:09:55.574Z,3.86
2022-12-22T21:12:24.003Z,3.88
2022-12-22T21:14:53.731Z,3.88
2022-12-22T21:17:23.456Z,3.87
2022-12-22T21:19:52.819Z,3.88
2022-12-22T21:22:21.374Z,3.91
2022-12-22T21:24:49.850Z,3.95
2022-12-22T21:27:21.267Z,3.99
2022-12-22T21:29:49.644Z,4.04
2022-12-22T21:32:18.247Z,4.12
2022-12-22T21:34:48.094Z,4.11
2022-12-22T21:37:20.506Z,4.05
2022-12-22T21:39:49.402Z,4.05
2022-12-22T21:42:20.150Z,4.04
2022-12-22T21:44:48.727Z,4.04
2022-12-22T21:47:21.336Z,4.06
2022-12-22T21:49:51.132Z,4.05
2022-12-22T21:52:20.128Z,4.04
2022-12-22T21:54:48.514Z,4.03
2022-12-22T21:57:17.249Z,4.08
2022-12-22T21:59:45.796Z,4.09
2022-12-22T22:02:17.484Z,4.04
2022-12-22T22:04:52.083Z,4.04
2022-12-22T22:07:25.439Z,4.07
2022-12-22T22:09:54.443Z,4.11
2022-12-22T22:12:37.324Z,4.10
2022-12-22T22:15:08.527Z,4.09
2022-12-22T22:17:37.399Z,4.11
2022-12-22T22:20:09.858Z,4.12
2022-12-22T22:22:39.503Z,4.12
2022-12-22T22:25:09.405Z,4.12
2022-12-22T22:27:41.804Z,4.15
2022-12-22T22:30:16.844Z,4.15
2022-12-22T22:32:45.771Z,4.13
2022-12-22T22:35:14.873Z,4.15
2022-12-22T22:37:45.861Z,4.21
2022-12-22T22:40:16.121Z,4.26
2022-12-22T22:42:44.586Z,4.36
2022-12-22T22:45:15.918Z,4.44
2022-12-22T22:47:44.401Z,4.44
2022-12-22T22:50:13.084Z,4.47
2022-12-22T22:52:41.667Z,4.47
2022-12-22T22:55:12.808Z,4.47
2022-12-22T22:57:41.321Z,4.46
2022-12-22T23:00:12.092Z,4.44
2022-12-22T23:02:41.006Z,4.45
2022-12-22T23:05:12.885Z,4.57
2022-12-22T23:07:43.987Z,4.56
2022-12-22T23:10:13.969Z,4.51
2022-12-22T23:12:42.355Z,4.46
2022-12-22T23:15:11.634Z,4.43
2022-12-22T23:17:40.298Z,4.38
2022-12-22T23:20:10.090Z,4.36
2022-12-22T23:22:38.966Z,4.31
2022-12-22T23:25:08.391Z,4.31
2022-12-22T23:27:38.398Z,4.29
2022-12-22T23:30:08.873Z,4.27
2022-12-22T23:32:37.351Z,4.25
2022-12-22T23:35:07.191Z,4.24
2022-12-22T23:37:35.557Z,4.19
2022-12-22T23:40:33.084Z,4.16
2022-12-22T23:42:57.021Z,4.12
2022-12-22T23:45:25.972Z,4.12
2022-12-22T23:47:54.475Z,4.14
2022-12-22T23:50:23.678Z,4.20
2022-12-22T23:52:52.843Z,4.24
2022-12-22T23:55:21.577Z,4.28
2022-12-22T23:57:51.836Z,4.28
